createdAt,value
2023-05-05T00:00:22.930Z,101349.59
2023-05-05T00:02:51.175Z,101349.59
2023-05-05T00:05:20.335Z,101348.81
2023-05-05T00:07:48.569Z,101350.00
2023-05-05T00:10:16.735Z,101358.22
2023-05-05T00:12:44.985Z,101356.25
2023-05-05T00:15:13.226Z,101369.16
2023-05-05T00:17:42.853Z,101371.09
2023-05-05T00:20:12.098Z,101360.94
2023-05-05T00:22:40.587Z,101363.31
2023-05-05T00:25:09.880Z,101367.59
2023-05-05T00:27:40.182Z,101366.81
2023-05-05T00:30:09.704Z,101366.41
2023-05-05T00:32:38.130Z,101358.19
2023-05-05T00:35:08.551Z,101367.59
2023-05-05T00:37:37.535Z,101364.44
2023-05-05T00:40:07.477Z,101373.84
2023-05-05T00:42:43.618Z,101368.34
2023-05-05T00:45:13.594Z,101368.00
2023-05-05T00:47:44.672Z,101368.00
2023-05-05T00:50:22.630Z,101364.47
2023-05-05T00:52:51.716Z,101355.06
2023-05-05T00:55:20.890Z,101358.97
2023-05-05T00:57:50.397Z,101359.38
2023-05-05T01:00:18.987Z,101359.00
2023-05-05T01:02:47.309Z,101363.28
2023-05-05T01:05:17.963Z,101365.66
2023-05-05T01:08:01.163Z,101366.03
2023-05-05T01:10:37.925Z,101371.53
2023-05-05T01:13:21.235Z,101377.78
2023-05-05T01:15:55.052Z,101373.06
2023-05-05T01:18:33.911Z,101378.56
2023-05-05T01:21:15.318Z,101387.13
2023-05-05T01:24:17.129Z,101389.50
2023-05-05T01:27:29.036Z,101380.91
2023-05-05T01:30:11.872Z,101375.81
2023-05-05T01:32:47.969Z,101387.94
2023-05-05T01:35:21.434Z,101391.44
2023-05-05T01:37:57.561Z,101402.38
2023-05-05T01:40:29.975Z,101406.72
2023-05-05T01:43:00.722Z,101405.50
2023-05-05T01:45:33.763Z,101401.22
2023-05-05T01:48:04.925Z,101410.63
2023-05-05T01:50:34.086Z,101402.00
2023-05-05T01:53:04.330Z,101417.63
2023-05-05T01:55:33.592Z,101402.78
2023-05-05T01:58:04.868Z,101412.53
2023-05-05T02:00:34.274Z,101414.84
2023-05-05T02:03:06.612Z,101404.69
2023-05-05T02:05:37.266Z,101411.34
2023-05-05T02:08:07.168Z,101421.50
2023-05-05T02:10:35.821Z,101419.16
2023-05-05T02:13:04.460Z,101416.03
2023-05-05T02:15:33.728Z,101416.81
2023-05-05T02:18:07.033Z,101409.34
2023-05-05T02:20:37.418Z,101414.44
2023-05-05T02:23:07.900Z,101411.28
2023-05-05T02:25:42.381Z,101418.34
2023-05-05T02:28:20.043Z,101408.16
2023-05-05T02:30:55.740Z,101407.75
2023-05-05T02:33:27.012Z,101411.25
2023-05-05T02:35:56.586Z,101410.47
2023-05-05T02:38:29.353Z,101408.88
2023-05-05T02:40:59.258Z,101410.06
2023-05-05T02:43:29.169Z,101407.72
2023-05-05T02:45:57.409Z,101405.00
2023-05-05T02:48:27.046Z,101416.69
2023-05-05T02:50:55.214Z,101417.47
2023-05-05T02:53:27.633Z,101420.22
2023-05-05T02:56:12.161Z,101425.31
2023-05-05T02:58:55.900Z,101426.88
2023-05-05T03:01:32.798Z,101424.50
2023-05-05T03:04:08.680Z,101431.56
2023-05-05T03:06:42.154Z,101432.28
2023-05-05T03:09:15.522Z,101432.66
2023-05-05T03:11:49.512Z,101431.50
2023-05-05T03:14:21.116Z,101440.06
2023-05-05T03:16:50.817Z,101433.00
2023-05-05T03:19:21.447Z,101433.03
2023-05-05T03:21:49.856Z,101440.00
2023-05-05T03:24:19.972Z,101444.69
2023-05-05T03:26:50.305Z,101440.34
2023-05-05T03:29:18.638Z,101443.81
2023-05-05T03:31:47.123Z,101443.03
2023-05-05T03:34:15.501Z,101435.97
2023-05-05T03:36:45.127Z,101432.81
2023-05-05T03:39:13.343Z,101447.63
2023-05-05T03:41:41.543Z,101453.44
2023-05-05T03:44:09.750Z,101449.50
2023-05-05T03:46:38.063Z,101457.25
2023-05-05T03:49:07.106Z,101462.34
2023-05-05T03:51:35.366Z,101463.06
2023-05-05T03:54:05.012Z,101462.69
2023-05-05T03:56:33.185Z,101461.47
2023-05-05T03:59:01.327Z,101463.78
2023-05-05T04:01:31.444Z,101470.38
2023-05-05T04:03:59.706Z,101480.13
2023-05-05T04:06:28.172Z,101481.28
2023-05-05T04:08:56.374Z,101485.50
2023-05-05T04:11:26.232Z,101475.38
2023-05-05T04:13:54.438Z,101483.16
2023-05-05T04:16:22.937Z,101476.50
2023-05-05T04:18:51.209Z,101480.75
2023-05-05T04:21:19.402Z,101490.13
2023-05-05T04:23:47.536Z,101503.72
2023-05-05T04:26:15.693Z,101487.72
2023-05-05T04:28:45.402Z,101494.34
2023-05-05T04:31:13.693Z,101493.91
2023-05-05T04:33:41.932Z,101502.88
2023-05-05T04:36:10.565Z,101499.38
2023-05-05T04:38:38.833Z,101506.00
2023-05-05T04:41:07.476Z,101511.81
2023-05-05T04:43:35.834Z,101504.03
2023-05-05T04:46:06.063Z,101497.00
2023-05-05T04:48:34.477Z,101498.91
2023-05-05T04:51:06.360Z,101502.03
2023-05-05T04:53:34.640Z,101502.81
2023-05-05T04:56:03.480Z,101502.81
2023-05-05T04:58:32.134Z,101496.19
2023-05-05T05:01:00.618Z,101499.38
2023-05-05T05:03:31.995Z,101501.31
2023-05-05T05:06:00.478Z,101508.00
2023-05-05T05:08:29.270Z,101510.34
2023-05-05T05:10:57.512Z,101520.53
2023-05-05T05:13:25.810Z,101518.22
2023-05-05T05:15:54.537Z,101522.94
2023-05-05T05:18:22.768Z,101523.72
2023-05-05T05:20:52.329Z,101519.91
2023-05-05T05:23:20.977Z,101527.78
2023-05-05T05:25:49.624Z,101528.22
2023-05-05T05:28:17.869Z,101532.50
2023-05-05T05:30:46.051Z,101534.84
2023-05-05T05:33:14.570Z,101535.63
2023-05-05T05:35:42.950Z,101544.28
2023-05-05T05:38:12.898Z,101536.47
2023-05-05T05:40:41.222Z,101545.06
2023-05-05T05:43:09.442Z,101529.88
2023-05-05T05:45:37.773Z,101534.97
2023-05-05T05:48:06.931Z,101536.91
2023-05-05T05:50:35.885Z,101542.81
2023-05-05T05:53:04.114Z,101546.00
2023-05-05T05:55:33.683Z,101535.91
2023-05-05T05:58:01.875Z,101550.78
2023-05-05T06:00:30.062Z,101546.13
2023-05-05T06:02:58.313Z,101549.69
2023-05-05T06:05:26.980Z,101541.50
2023-05-05T06:07:55.200Z,101542.72
2023-05-05T06:10:28.072Z,101545.13
2023-05-05T06:12:58.182Z,101550.63
2023-05-05T06:15:26.472Z,101547.13
2023-05-05T06:17:54.742Z,101556.91
2023-05-05T06:20:23.062Z,101563.19
2023-05-05T06:22:51.248Z,101556.97
2023-05-05T06:25:19.510Z,101569.88
2023-05-05T06:27:47.731Z,101569.56
2023-05-05T06:30:17.757Z,101573.88
2023-05-05T06:32:46.070Z,101574.25
2023-05-05T06:35:14.343Z,101579.75
2023-05-05T06:37:45.232Z,101587.19
2023-05-05T06:40:14.294Z,101580.56
2023-05-05T06:42:42.529Z,101579.00
2023-05-05T06:45:12.597Z,101586.13
2023-05-05T06:47:44.320Z,101592.03
2023-05-05T06:50:13.049Z,101589.28
2023-05-05T06:52:41.837Z,101596.78
2023-05-05T06:55:10.893Z,101592.91
2023-05-05T06:57:39.183Z,101594.91
2023-05-05T07:00:11.273Z,101598.84
2023-05-05T07:02:40.921Z,101599.66
2023-05-05T07:05:09.575Z,101597.34
2023-05-05T07:07:38.919Z,101602.41
2023-05-05T07:10:09.827Z,101605.56
2023-05-05T07:12:38.472Z,101601.63
2023-05-05T07:15:23.383Z,101607.13
2023-05-05T07:17:56.530Z,101605.19
2023-05-05T07:20:25.204Z,101602.81
2023-05-05T07:22:53.527Z,101601.22
2023-05-05T07:25:22.248Z,101600.06
2023-05-05T07:27:50.593Z,101608.66
2023-05-05T07:30:19.543Z,101607.88
2023-05-05T07:32:48.186Z,101604.69
2023-05-05T07:35:18.018Z,101594.50
2023-05-05T07:37:46.334Z,101595.28
2023-05-05T07:40:15.097Z,101603.88
2023-05-05T07:42:43.606Z,101607.34
2023-05-05T07:45:12.527Z,101604.19
2023-05-05T07:47:41.770Z,101601.81
2023-05-05T07:50:11.358Z,101608.47
2023-05-05T07:52:46.689Z,101604.13
2023-05-05T07:55:20.148Z,101597.41
2023-05-05T07:57:49.676Z,101598.56
2023-05-05T08:00:19.918Z,101605.56
2023-05-05T08:02:48.373Z,101610.59
2023-05-05T08:05:17.410Z,101609.75
2023-05-05T08:07:46.999Z,101617.94
2023-05-05T08:10:15.251Z,101615.53
2023-05-05T08:12:43.705Z,101607.63
2023-05-05T08:15:12.685Z,101608.75
2023-05-05T08:17:48.664Z,101606.69
2023-05-05T08:20:17.377Z,101604.31
2023-05-05T08:22:47.687Z,101594.00
2023-05-05T08:25:16.325Z,101594.72
2023-05-05T08:27:44.928Z,101593.84
2023-05-05T08:30:16.556Z,101594.56
2023-05-05T08:32:44.955Z,101592.59
2023-05-05T08:35:14.567Z,101597.63
2023-05-05T08:37:43.355Z,101586.94
2023-05-05T08:40:15.664Z,101591.94
2023-05-05T08:42:45.558Z,101592.28
2023-05-05T08:45:14.613Z,101581.59
2023-05-05T08:47:43.526Z,101593.41
2023-05-05T08:50:12.984Z,101593.06
2023-05-05T08:52:44.682Z,101593.06
2023-05-05T08:55:25.435Z,101600.94
2023-05-05T08:57:57.006Z,101600.16
2023-05-05T09:00:26.592Z,101602.53
2023-05-05T09:02:57.414Z,101603.31
2023-05-05T09:05:26.313Z,101597.72
2023-05-05T09:07:54.568Z,101601.13
2023-05-05T09:10:24.796Z,101592.66
2023-05-05T09:12:53.262Z,101596.16
2023-05-05T09:15:21.520Z,101588.63
2023-05-05T09:17:49.728Z,101594.16
2023-05-05T09:20:17.983Z,101597.72
2023-05-05T09:22:48.328Z,101609.63
2023-05-05T09:25:19.070Z,101612.44
2023-05-05T09:27:50.360Z,101609.69
2023-05-05T09:30:25.238Z,101603.34
2023-05-05T09:32:55.124Z,101606.09
2023-05-05T09:35:24.520Z,101617.09
2023-05-05T09:37:52.788Z,101619.09
2023-05-05T09:40:22.439Z,101612.88
2023-05-05T09:43:02.938Z,101623.50
2023-05-05T09:45:31.154Z,101615.56
2023-05-05T09:48:00.600Z,101618.75
2023-05-05T09:50:30.895Z,101603.53
2023-05-05T09:53:02.293Z,101606.34
2023-05-05T09:55:32.144Z,101605.19
2023-05-05T09:58:19.896Z,101607.94
2023-05-05T10:00:48.522Z,101606.75
2023-05-05T10:03:17.127Z,101607.16
2023-05-05T10:05:51.961Z,101605.69
2023-05-05T10:08:23.152Z,101597.09
2023-05-05T10:10:54.198Z,101593.91
2023-05-05T10:13:25.211Z,101594.69
2023-05-05T10:15:54.805Z,101599.84
2023-05-05T10:18:24.853Z,101587.25
2023-05-05T10:20:58.609Z,101588.84
2023-05-05T10:23:35.754Z,101580.63
2023-05-05T10:26:07.189Z,101579.44
2023-05-05T10:28:43.584Z,101578.56
2023-05-05T10:31:25.657Z,101591.53
2023-05-05T10:34:01.714Z,101578.91
2023-05-05T10:36:31.851Z,101588.34
2023-05-05T10:39:02.070Z,101592.31
2023-05-05T10:41:31.878Z,101585.25
2023-05-05T10:44:04.479Z,101584.50
2023-05-05T10:46:33.744Z,101590.09
2023-05-05T10:49:13.623Z,101585.88
2023-05-05T10:51:51.138Z,101592.63
2023-05-05T10:54:34.643Z,101586.47
2023-05-05T10:57:06.818Z,101592.84
2023-05-05T10:59:47.420Z,101602.53
2023-05-05T11:02:27.201Z,101609.19
2023-05-05T11:05:18.380Z,101619.66
2023-05-05T11:07:49.232Z,101617.25
2023-05-05T11:10:20.365Z,101610.53
2023-05-05T11:13:21.230Z,101605.41
2023-05-05T11:15:54.245Z,101603.75
2023-05-05T11:18:39.188Z,101604.91
2023-05-05T11:21:19.145Z,101612.19
2023-05-05T11:23:50.201Z,101605.94
2023-05-05T11:26:19.704Z,101597.00
2023-05-05T11:29:05.611Z,101597.50
2023-05-05T11:31:35.315Z,101589.75
2023-05-05T11:34:28.661Z,101592.13
2023-05-05T11:37:03.624Z,101587.03
2023-05-05T11:39:44.030Z,101590.25
2023-05-05T11:42:33.228Z,101582.84
2023-05-05T11:45:01.658Z,101583.63
2023-05-05T11:47:34.638Z,101578.94
2023-05-05T11:50:22.964Z,101578.16
2023-05-05T11:52:51.420Z,101572.66
2023-05-05T11:55:23.983Z,101575.41
2023-05-05T11:57:52.568Z,101576.53
2023-05-05T12:00:21.483Z,101571.47
2023-05-05T12:02:58.910Z,101574.22
2023-05-05T12:05:27.557Z,101566.75
2023-05-05T12:07:59.591Z,101571.09
2023-05-05T12:10:28.525Z,101560.47
2023-05-05T12:12:56.862Z,101560.06
2023-05-05T12:15:33.266Z,101550.63
2023-05-05T12:18:03.406Z,101556.91
2023-05-05T12:20:33.748Z,101562.75
2023-05-05T12:23:04.136Z,101567.47
2023-05-05T12:25:42.250Z,101555.72
2023-05-05T12:28:11.223Z,101559.66
2023-05-05T12:30:39.519Z,101550.63
2023-05-05T12:33:09.708Z,101554.56
2023-05-05T12:35:38.161Z,101554.94
2023-05-05T12:38:06.575Z,101546.28
2023-05-05T12:40:48.515Z,101549.81
2023-05-05T12:43:31.500Z,101549.75
2023-05-05T12:46:05.432Z,101564.56
2023-05-05T12:48:35.807Z,101556.31
2023-05-05T12:51:19.825Z,101546.50
2023-05-05T12:53:49.477Z,101548.84
2023-05-05T12:56:38.456Z,101544.91
2023-05-05T12:59:08.905Z,101549.16
2023-05-05T13:01:38.826Z,101542.84
2023-05-05T13:04:12.044Z,101554.59
2023-05-05T13:06:42.610Z,101551.09
2023-05-05T13:09:23.350Z,101554.25
2023-05-05T13:11:51.814Z,101545.22
2023-05-05T13:14:20.374Z,101544.06
2023-05-05T13:16:48.795Z,101537.03
2023-05-05T13:19:18.894Z,101533.09
2023-05-05T13:21:47.201Z,101538.63
2023-05-05T13:24:26.134Z,101526.50
2023-05-05T13:27:04.033Z,101538.66
2023-05-05T13:29:33.090Z,101568.56
2023-05-05T13:32:01.529Z,101616.94
2023-05-05T13:34:31.116Z,101654.63
2023-05-05T13:36:59.375Z,101630.75
2023-05-05T13:39:27.641Z,101641.41
2023-05-05T13:41:55.822Z,101629.25
2023-05-05T13:44:24.244Z,101606.97
2023-05-05T13:46:52.548Z,101608.97
2023-05-05T13:49:21.076Z,101610.56
2023-05-05T13:51:50.805Z,101604.41
2023-05-05T13:54:19.088Z,101612.19
2023-05-05T13:56:47.713Z,101607.50
2023-05-05T13:59:16.120Z,101611.44
2023-05-05T14:01:44.441Z,101610.66
2023-05-05T14:04:12.745Z,101615.81
2023-05-05T14:06:40.987Z,101612.75
2023-05-05T14:09:11.081Z,101610.06
2023-05-05T14:11:42.121Z,101601.19
2023-05-05T14:14:10.730Z,101600.81
2023-05-05T14:16:39.356Z,101600.91
2023-05-05T14:19:09.985Z,101598.22
2023-05-05T14:21:38.217Z,101598.69
2023-05-05T14:24:07.262Z,101601.06
2023-05-05T14:26:36.826Z,101606.94
2023-05-05T14:29:05.138Z,101603.47
2023-05-05T14:31:33.396Z,101595.25
2023-05-05T14:34:01.726Z,101592.19
2023-05-05T14:36:29.912Z,101594.09
2023-05-05T14:38:58.403Z,101583.16
2023-05-05T14:41:26.772Z,101579.63
2023-05-05T14:43:57.241Z,101580.78
2023-05-05T14:46:26.191Z,101573.38
2023-05-05T14:48:54.668Z,101580.00
2023-05-05T14:51:22.927Z,101576.13
2023-05-05T14:53:51.141Z,101567.91
2023-05-05T14:56:21.799Z,101569.06
2023-05-05T14:58:49.996Z,101578.06
2023-05-05T15:01:20.664Z,101583.53
2023-05-05T15:03:49.092Z,101588.22
2023-05-05T15:06:17.544Z,101584.66
2023-05-05T15:08:45.849Z,101583.03
2023-05-05T15:11:14.099Z,101590.44
2023-05-05T15:13:42.356Z,101588.75
2023-05-05T15:16:10.680Z,101583.19
2023-05-05T15:18:40.958Z,101578.84
2023-05-05T15:21:09.264Z,101589.06
2023-05-05T15:23:37.673Z,101582.13
2023-05-05T15:26:06.447Z,101572.78
2023-05-05T15:28:34.684Z,101579.06
2023-05-05T15:31:02.974Z,101581.31
2023-05-05T15:33:31.959Z,101575.84
2023-05-05T15:36:02.133Z,101584.03
2023-05-05T15:38:31.466Z,101588.31
2023-05-05T15:40:59.816Z,101580.56
2023-05-05T15:43:28.348Z,101591.91
2023-05-05T15:45:56.613Z,101585.25
2023-05-05T15:48:25.010Z,101593.00
2023-05-05T15:50:53.270Z,101597.31
2023-05-05T15:53:23.190Z,101592.22
2023-05-05T15:55:51.507Z,101602.31
2023-05-05T15:58:20.029Z,101610.06
2023-05-05T16:00:48.381Z,101610.84
2023-05-05T16:03:16.782Z,101595.56
2023-05-05T16:05:45.113Z,101603.72
2023-05-05T16:08:13.375Z,101612.34
2023-05-05T16:10:43.082Z,101592.78
2023-05-05T16:13:11.542Z,101593.56
2023-05-05T16:15:39.793Z,101592.72
2023-05-05T16:18:08.099Z,101593.47
2023-05-05T16:20:36.615Z,101595.00
2023-05-05T16:23:04.892Z,101603.16
2023-05-05T16:25:33.104Z,101607.81
2023-05-05T16:28:02.727Z,101615.16
2023-05-05T16:30:31.004Z,101630.75
2023-05-05T16:32:59.290Z,101614.28
2023-05-05T16:35:27.889Z,101625.94
2023-05-05T16:37:56.298Z,101625.13
2023-05-05T16:40:24.749Z,101625.03
2023-05-05T16:42:53.029Z,101630.84
2023-05-05T16:45:22.666Z,101624.50
2023-05-05T16:47:51.140Z,101622.88
2023-05-05T16:50:19.569Z,101620.16
2023-05-05T16:52:47.839Z,101610.34
2023-05-05T16:55:16.527Z,101607.94
2023-05-05T16:57:44.831Z,101615.28
2023-05-05T17:00:14.613Z,101608.28
2023-05-05T17:02:44.260Z,101612.59
2023-05-05T17:05:12.926Z,101612.97
2023-05-05T17:07:41.500Z,101610.69
2023-05-05T17:10:11.088Z,101608.00
2023-05-05T17:12:39.396Z,101602.19
2023-05-05T17:15:09.704Z,101605.34
2023-05-05T17:17:38.271Z,101602.63
2023-05-05T17:20:09.782Z,101593.69
2023-05-05T17:22:38.070Z,101585.91
2023-05-05T17:25:07.630Z,101586.69
2023-05-05T17:27:36.073Z,101582.41
2023-05-05T17:30:05.471Z,101589.81
2023-05-05T17:32:33.766Z,101590.13
2023-05-05T17:35:02.071Z,101585.06
2023-05-05T17:37:32.320Z,101580.78
2023-05-05T17:40:00.928Z,101583.50
2023-05-05T17:42:33.363Z,101585.44
2023-05-05T17:45:01.724Z,101589.75
2023-05-05T17:47:30.306Z,101583.50
2023-05-05T17:49:59.446Z,101585.06
2023-05-05T17:52:27.763Z,101590.53
2023-05-05T17:54:57.580Z,101590.53
2023-05-05T17:57:25.899Z,101599.88
2023-05-05T17:59:54.189Z,101601.03
2023-05-05T18:02:22.529Z,101610.38
2023-05-05T18:04:50.879Z,101601.00
2023-05-05T18:07:19.096Z,101599.41
2023-05-05T18:09:47.281Z,101597.06
2023-05-05T18:12:17.411Z,101599.34
2023-05-05T18:14:45.656Z,101605.97
2023-05-05T18:17:13.883Z,101608.28
2023-05-05T18:19:46.650Z,101604.78
2023-05-05T18:22:17.041Z,101611.38
2023-05-05T18:24:45.327Z,101610.59
2023-05-05T18:27:13.520Z,101613.69
2023-05-05T18:29:43.341Z,101610.56
2023-05-05T18:32:12.084Z,101611.22
2023-05-05T18:34:40.460Z,101601.78
2023-05-05T18:37:08.728Z,101606.41
2023-05-05T18:39:38.061Z,101612.69
2023-05-05T18:42:08.216Z,101616.91
2023-05-05T18:44:36.531Z,101609.03
2023-05-05T18:47:06.834Z,101616.41
2023-05-05T18:49:35.489Z,101625.00
2023-05-05T18:52:04.015Z,101623.34
2023-05-05T18:54:32.233Z,101627.13
2023-05-05T18:57:01.158Z,101632.00
2023-05-05T18:59:29.838Z,101634.31
2023-05-05T19:01:59.358Z,101628.13
2023-05-05T19:07:31.299Z,101648.34
2023-05-05T19:10:03.179Z,101641.31
2023-05-05T19:12:31.430Z,101649.41
2023-05-05T19:14:59.809Z,101648.97
2023-05-05T19:17:28.283Z,101643.84
2023-05-05T19:19:58.038Z,101651.56
2023-05-05T19:22:26.443Z,101656.97
2023-05-05T19:24:54.721Z,101658.44
2023-05-05T19:27:23.076Z,101660.78
2023-05-05T19:29:53.008Z,101662.94
2023-05-05T19:32:22.457Z,101654.56
2023-05-05T19:34:54.111Z,101658.78
2023-05-05T19:37:23.803Z,101661.09
2023-05-05T19:39:52.152Z,101666.56
2023-05-05T19:42:20.688Z,101661.09
2023-05-05T19:44:48.922Z,101669.66
2023-05-05T19:47:18.004Z,101666.56
2023-05-05T19:49:46.242Z,101673.16
2023-05-05T19:52:14.472Z,101670.00
2023-05-05T19:54:44.043Z,101672.28
2023-05-05T19:57:12.606Z,101666.41
2023-05-05T19:59:41.689Z,101667.91
2023-05-05T20:02:11.461Z,101666.69
2023-05-05T20:04:39.747Z,101666.28
2023-05-05T20:07:07.954Z,101658.47
2023-05-05T20:09:37.699Z,101667.00
2023-05-05T20:12:08.624Z,101664.63
2023-05-05T20:14:36.897Z,101660.31
2023-05-05T20:17:05.228Z,101659.91
2023-05-05T20:22:01.796Z,101668.41
2023-05-05T20:24:30.082Z,101664.41
2023-05-05T20:26:58.357Z,101667.78
2023-05-05T20:29:27.988Z,101673.03
2023-05-05T20:31:56.186Z,101665.53
2023-05-05T20:34:25.072Z,101665.03
2023-05-05T20:36:54.129Z,101662.25
2023-05-05T20:39:22.493Z,101662.50
2023-05-05T20:41:50.906Z,101662.78
2023-05-05T20:44:22.153Z,101657.28
2023-05-05T20:46:51.834Z,101658.44
2023-05-05T20:49:20.211Z,101655.34
2023-05-05T20:51:48.529Z,101656.16
2023-05-05T20:54:16.874Z,101658.09
2023-05-05T20:56:45.233Z,101659.66
2023-05-05T20:59:13.536Z,101664.72
2023-05-05T21:01:41.911Z,101661.59
2023-05-05T21:04:13.664Z,101664.22
2023-05-05T21:06:41.951Z,101660.66
2023-05-05T21:09:10.222Z,101667.56
2023-05-05T21:11:38.543Z,101664.44
2023-05-05T21:14:07.068Z,101672.16
2023-05-05T21:16:35.613Z,101672.47
2023-05-05T21:19:03.985Z,101667.78
2023-05-05T21:21:33.658Z,101676.22
2023-05-05T21:24:01.937Z,101667.88
2023-05-05T21:26:36.302Z,101669.69
2023-05-05T21:29:04.753Z,101670.06
2023-05-05T21:31:33.140Z,101673.16
2023-05-05T21:34:01.993Z,101674.28
2023-05-05T21:36:30.429Z,101669.63
2023-05-05T21:39:00.542Z,101670.00
2023-05-05T21:41:29.034Z,101669.16
2023-05-05T21:43:57.328Z,101672.97
2023-05-05T21:46:25.686Z,101673.25
2023-05-05T21:48:54.105Z,101675.44
2023-05-05T21:51:23.506Z,101666.72
2023-05-05T21:53:51.743Z,101674.03
2023-05-05T21:56:21.375Z,101661.13
2023-05-05T21:58:49.646Z,101666.94
2023-05-05T22:01:17.891Z,101671.22
2023-05-05T22:03:47.481Z,101663.41
2023-05-05T22:06:18.421Z,101657.19
2023-05-05T22:08:46.629Z,101660.22
2023-05-05T22:11:15.441Z,101661.50
2023-05-05T22:13:45.153Z,101668.84
2023-05-05T22:16:13.552Z,101665.00
2023-05-05T22:18:41.828Z,101659.56
2023-05-05T22:21:10.300Z,101654.13
2023-05-05T22:23:41.352Z,101650.97
2023-05-05T22:26:09.779Z,101641.94
2023-05-05T22:28:39.587Z,101649.91
2023-05-05T22:31:09.217Z,101650.56
2023-05-05T22:33:37.599Z,101649.44
2023-05-05T22:36:06.520Z,101647.19
2023-05-05T22:38:34.771Z,101651.91
2023-05-05T22:41:03.899Z,101638.78
2023-05-05T22:43:32.137Z,101643.88
2023-05-05T22:46:00.395Z,101637.38
2023-05-05T22:48:30.081Z,101633.16
2023-05-05T22:50:58.400Z,101629.66
2023-05-05T22:53:26.819Z,101629.28
2023-05-05T22:55:55.099Z,101635.16
2023-05-05T22:58:23.685Z,101633.25
2023-05-05T23:00:51.961Z,101639.13
2023-05-05T23:03:20.401Z,101641.47
2023-05-05T23:05:50.010Z,101639.53
2023-05-05T23:08:18.230Z,101646.56
2023-05-05T23:10:46.505Z,101647.69
2023-05-05T23:13:14.706Z,101647.69
2023-05-05T23:15:43.615Z,101655.84
2023-05-05T23:18:11.826Z,101645.75
2023-05-05T23:20:40.016Z,101641.13
2023-05-05T23:23:09.629Z,101648.47
2023-05-05T23:25:37.822Z,101641.91
2023-05-05T23:28:06.179Z,101630.25
2023-05-05T23:30:34.495Z,101640.44
2023-05-05T23:33:03.774Z,101647.47
2023-05-05T23:35:32.082Z,101637.38
2023-05-05T23:38:00.302Z,101633.50
2023-05-05T23:40:29.886Z,101638.16
2023-05-05T23:42:58.117Z,101635.44
2023-05-05T23:45:26.400Z,101631.50
2023-05-05T23:47:54.948Z,101647.47
2023-05-05T23:50:23.318Z,101636.16
2023-05-05T23:52:51.623Z,101637.25
2023-05-05T23:55:19.983Z,101645.41
2023-05-05T23:57:51.489Z,101637.88
